createdAt,value
2023-04-08T00:00:02.624Z,1017.7
2023-04-08T00:15:02.876Z,1017.8
2023-04-08T00:30:02.308Z,1017.8
2023-04-08T00:45:02.755Z,1017.8
2023-04-08T01:00:03.203Z,1017.9
2023-04-08T01:15:02.645Z,1017.9
2023-04-08T01:30:03.107Z,1018.1
2023-04-08T01:45:02.649Z,1018.0
2023-04-08T02:00:02.969Z,1018.0
2023-04-08T02:15:02.389Z,1017.9
2023-04-08T02:30:02.840Z,1018.2
2023-04-08T02:45:02.257Z,1018.1
2023-04-08T03:00:02.744Z,1018.2
2023-04-08T03:15:03.156Z,1018.2
2023-04-08T03:30:02.669Z,1018.3
2023-04-08T03:45:03.059Z,1018.3
2023-04-08T04:00:02.677Z,1018.3
2023-04-08T04:15:02.941Z,1018.3
2023-04-08T04:30:02.389Z,1018.5
2023-04-08T04:45:02.782Z,1018.6
2023-04-08T05:00:05.170Z,1018.7
2023-04-08T05:15:02.715Z,1018.7
2023-04-08T05:30:03.148Z,1018.8
2023-04-08T05:45:02.688Z,1019.1
2023-04-08T06:00:03.025Z,1019.1
2023-04-08T06:15:02.670Z,1019.2
2023-04-08T06:30:02.910Z,1019.5
2023-04-08T06:45:02.332Z,1019.6
2023-04-08T07:00:02.800Z,1019.7
2023-04-08T07:15:03.230Z,1020.1
2023-04-08T07:30:02.705Z,1020.0
2023-04-08T07:45:03.094Z,1020.1
2023-04-08T08:00:02.710Z,1020.1
2023-04-08T08:15:02.988Z,1020.1
2023-04-08T08:30:02.465Z,1020.4
2023-04-08T08:45:02.864Z,1020.4
2023-04-08T09:00:02.308Z,1020.5
2023-04-08T09:15:02.753Z,1020.6
2023-04-08T09:30:02.195Z,1020.6
2023-04-08T09:45:02.716Z,1020.6
2023-04-08T10:00:03.062Z,1020.7
2023-04-08T10:15:02.728Z,1020.7
2023-04-08T10:30:02.947Z,1020.8
2023-04-08T10:45:02.383Z,1020.9
2023-04-08T11:00:02.805Z,1020.9
2023-04-08T11:15:03.256Z,1020.8
2023-04-08T11:30:02.784Z,1020.9
2023-04-08T11:45:03.132Z,1020.8
2023-04-08T12:00:02.757Z,1020.9
2023-04-08T12:15:03.013Z,1020.8
2023-04-08T12:30:02.460Z,1020.8
2023-04-08T12:45:02.901Z,1020.9
2023-04-08T13:00:02.342Z,1020.9
2023-04-08T13:15:02.796Z,1020.9
2023-04-08T13:30:02.189Z,1020.8
2023-04-08T13:45:02.764Z,1020.9
2023-04-08T14:00:03.063Z,1020.9
2023-04-08T14:15:02.511Z,1021.0
2023-04-08T14:30:02.922Z,1020.9
2023-04-08T14:45:02.368Z,1020.9
2023-04-08T15:00:02.852Z,1020.8
2023-04-08T15:15:02.261Z,1020.7
2023-04-08T15:30:02.854Z,1020.7
2023-04-08T15:45:02.157Z,1020.8
2023-04-08T16:00:02.803Z,1020.8
2023-04-08T16:15:02.035Z,1020.8
2023-04-08T16:30:02.514Z,1020.8
2023-04-08T16:45:02.898Z,1020.9
2023-04-08T17:00:02.318Z,1021.1
2023-04-08T17:15:02.807Z,1021.1
2023-04-08T17:30:02.222Z,1021.1
2023-04-08T17:45:02.841Z,1021.1
2023-04-08T18:00:02.086Z,1021.2
2023-04-08T18:15:02.533Z,1021.4
2023-04-08T18:30:02.960Z,1021.6
2023-04-08T18:45:02.390Z,1021.7
2023-04-08T19:00:02.844Z,1021.9
2023-04-08T19:15:02.266Z,1021.9
2023-04-08T19:30:02.839Z,1022.0
2023-04-08T19:45:02.156Z,1021.9
2023-04-08T20:00:02.742Z,1021.9
2023-04-08T20:15:03.035Z,1022.0
2023-04-08T20:30:02.514Z,1022.1
2023-04-08T20:45:02.900Z,1022.2
2023-04-08T21:00:02.335Z,1022.2
2023-04-08T21:15:02.878Z,1022.1
2023-04-08T21:30:02.182Z,1022.1
2023-04-08T21:45:02.871Z,1022.1
2023-04-08T22:15:02.566Z,1021.9
2023-04-08T22:30:02.957Z,1021.9
2023-04-08T22:45:02.383Z,1021.9
2023-04-08T23:00:04.253Z,1021.9
2023-04-08T23:15:03.273Z,1022.0
2023-04-08T23:30:02.872Z,1022.0
2023-04-08T23:45:02.148Z,1022.0
